createdAt,value
2023-01-20T00:01:43.178Z,-1.38
2023-01-20T00:04:10.161Z,-1.46
2023-01-20T00:06:37.246Z,-1.49
2023-01-20T00:09:05.656Z,-1.51
2023-01-20T00:11:33.455Z,-1.45
2023-01-20T00:14:02.579Z,-1.33
2023-01-20T00:16:31.954Z,-1.25
2023-01-20T00:18:59.191Z,-0.94
2023-01-20T00:21:26.391Z,-0.78
2023-01-20T00:23:53.349Z,-0.69
2023-01-20T00:26:22.759Z,-0.69
2023-01-20T00:28:53.325Z,-0.69
2023-01-20T00:31:29.796Z,-0.78
2023-01-20T00:33:59.825Z,-0.95
2023-01-20T00:36:31.134Z,-0.94
2023-01-20T00:38:58.813Z,-0.92
2023-01-20T00:41:26.161Z,-0.81
2023-01-20T00:43:53.542Z,-0.84
2023-01-20T00:46:23.012Z,-0.96
2023-01-20T00:48:50.063Z,-0.96
2023-01-20T00:51:17.001Z,-0.86
2023-01-20T00:53:44.017Z,-0.59
2023-01-20T00:56:10.962Z,-0.58
2023-01-20T00:58:37.906Z,-0.50
2023-01-20T01:01:05.243Z,-0.63
2023-01-20T01:03:32.246Z,-0.82
2023-01-20T01:06:11.820Z,-1.10
2023-01-20T01:08:39.186Z,-1.01
2023-01-20T01:11:07.073Z,-1.14
2023-01-20T01:13:35.002Z,-1.31
2023-01-20T01:16:02.295Z,-1.10
2023-01-20T01:18:29.358Z,-1.01
2023-01-20T01:20:58.046Z,-1.16
2023-01-20T01:23:25.023Z,-1.18
2023-01-20T01:26:07.135Z,-0.95
2023-01-20T01:28:34.379Z,-0.73
2023-01-20T01:31:06.898Z,-0.52
2023-01-20T01:33:34.835Z,-0.43
2023-01-20T01:36:03.627Z,-0.58
2023-01-20T01:38:30.893Z,-0.63
2023-01-20T01:40:57.885Z,-0.62
2023-01-20T01:43:35.820Z,-0.70
2023-01-20T01:46:04.399Z,-0.70
2023-01-20T01:48:38.611Z,-0.81
2023-01-20T01:51:15.747Z,-0.83
2023-01-20T01:54:15.079Z,-0.70
2023-01-20T01:56:43.930Z,-0.62
2023-01-20T01:59:13.286Z,-0.58
2023-01-20T02:01:45.369Z,-0.69
2023-01-20T02:04:17.044Z,-0.73
2023-01-20T02:06:57.600Z,-0.66
2023-01-20T02:09:26.554Z,-0.71
2023-01-20T02:11:58.608Z,-0.61
2023-01-20T02:14:41.397Z,-0.67
2023-01-20T02:18:06.693Z,-0.73
2023-01-20T02:21:08.777Z,-0.78
2023-01-20T02:23:50.513Z,-0.65
2023-01-20T02:26:56.527Z,-0.63
2023-01-20T02:30:06.690Z,-0.63
2023-01-20T02:33:20.539Z,-0.67
2023-01-20T02:35:53.945Z,-0.56
2023-01-20T02:38:32.155Z,-0.37
2023-01-20T02:41:17.370Z,-0.18
2023-01-20T02:44:14.740Z,-0.23
2023-01-20T02:46:57.250Z,-0.23
2023-01-20T02:49:59.252Z,-0.30
2023-01-20T02:52:39.517Z,-0.51
2023-01-20T02:55:16.901Z,-0.60
2023-01-20T02:57:54.189Z,-0.55
2023-01-20T03:00:27.810Z,-0.44
2023-01-20T03:02:58.000Z,-0.46
2023-01-20T03:05:31.158Z,-0.32
2023-01-20T03:08:01.564Z,-0.30
2023-01-20T03:10:32.956Z,-0.35
2023-01-20T03:13:12.342Z,-0.44
2023-01-20T03:16:01.489Z,-0.42
2023-01-20T03:18:33.349Z,-0.33
2023-01-20T03:21:03.289Z,-0.36
2023-01-20T03:23:35.983Z,-0.43
2023-01-20T03:26:09.482Z,-0.35
2023-01-20T03:28:36.458Z,-0.20
2023-01-20T03:31:31.794Z,-0.38
2023-01-20T03:34:02.146Z,-0.22
2023-01-20T03:36:31.479Z,-0.30
2023-01-20T03:38:59.492Z,-0.27
2023-01-20T03:41:49.623Z,-0.30
2023-01-20T03:44:32.531Z,-0.17
2023-01-20T03:47:52.662Z,-0.21
2023-01-20T03:50:47.730Z,-0.38
2023-01-20T03:53:36.831Z,-0.37
2023-01-20T03:56:17.020Z,-0.30
2023-01-20T03:58:49.393Z,-0.18
2023-01-20T04:01:20.065Z,-0.31
2023-01-20T04:03:51.095Z,-0.28
2023-01-20T04:06:21.498Z,-0.39
2023-01-20T04:08:56.773Z,-0.16
2023-01-20T04:11:24.715Z,-0.05
2023-01-20T04:13:51.742Z,-0.12
2023-01-20T04:16:20.223Z,-0.19
2023-01-20T04:18:50.633Z,-0.38
2023-01-20T04:21:34.237Z,-0.26
2023-01-20T04:24:10.069Z,-0.24
2023-01-20T04:26:37.067Z,-0.24
2023-01-20T04:29:11.160Z,-0.12
2023-01-20T04:31:39.806Z,-0.14
2023-01-20T04:34:12.341Z,-0.14
2023-01-20T04:36:39.291Z,-0.17
2023-01-20T04:39:06.294Z,-0.14
2023-01-20T04:41:33.210Z,-0.09
2023-01-20T04:44:00.220Z,-0.17
2023-01-20T04:46:27.242Z,-0.38
2023-01-20T04:48:54.509Z,-0.51
2023-01-20T04:51:21.700Z,-0.33
2023-01-20T04:53:48.636Z,-0.28
2023-01-20T04:56:16.140Z,-0.29
2023-01-20T04:58:43.689Z,-0.23
2023-01-20T05:01:10.864Z,-0.34
2023-01-20T05:03:38.388Z,-0.45
2023-01-20T05:06:09.046Z,-0.33
2023-01-20T05:08:36.028Z,-0.44
2023-01-20T05:11:03.625Z,-0.24
2023-01-20T05:13:30.568Z,-0.36
2023-01-20T05:15:58.079Z,-0.38
2023-01-20T05:18:25.038Z,-0.33
2023-01-20T05:20:52.002Z,-0.34
2023-01-20T05:23:18.935Z,-0.20
2023-01-20T05:25:53.120Z,-0.23
2023-01-20T05:28:20.326Z,-0.35
2023-01-20T05:30:48.478Z,-0.45
2023-01-20T05:33:15.593Z,-0.58
2023-01-20T05:35:42.531Z,-0.58
2023-01-20T05:38:09.620Z,-0.40
2023-01-20T05:40:36.636Z,-0.49
2023-01-20T05:43:03.997Z,-0.38
2023-01-20T05:45:32.447Z,-0.32
2023-01-20T05:48:00.615Z,-0.28
2023-01-20T05:50:28.882Z,-0.35
2023-01-20T05:52:55.849Z,-0.35
2023-01-20T05:55:22.831Z,-0.32
2023-01-20T05:57:49.824Z,-0.43
2023-01-20T06:00:18.838Z,-0.36
2023-01-20T06:02:46.228Z,-0.24
2023-01-20T06:05:13.584Z,-0.17
2023-01-20T06:07:40.834Z,-0.30
2023-01-20T06:10:08.838Z,-0.41
2023-01-20T06:12:35.881Z,-0.36
2023-01-20T06:15:06.957Z,-0.38
2023-01-20T06:17:34.084Z,-0.44
2023-01-20T06:20:01.254Z,-0.43
2023-01-20T06:22:28.236Z,-0.27
2023-01-20T06:24:55.176Z,-0.25
2023-01-20T06:27:22.197Z,-0.24
2023-01-20T06:29:50.829Z,-0.16
2023-01-20T06:32:17.836Z,-0.15
2023-01-20T06:34:44.756Z,-0.25
2023-01-20T06:37:11.793Z,-0.44
2023-01-20T06:39:40.244Z,-0.37
2023-01-20T06:42:07.437Z,-0.55
2023-01-20T06:44:34.977Z,-0.44
2023-01-20T06:47:02.589Z,-0.46
2023-01-20T06:49:30.183Z,-0.78
2023-01-20T06:51:57.190Z,-0.99
2023-01-20T06:54:24.272Z,-0.83
2023-01-20T06:56:51.316Z,-0.80
2023-01-20T06:59:18.309Z,-0.81
2023-01-20T07:01:45.350Z,-0.69
2023-01-20T07:04:15.492Z,-0.54
2023-01-20T07:06:42.853Z,-0.41
2023-01-20T07:09:13.819Z,-0.51
2023-01-20T07:11:41.048Z,-0.56
2023-01-20T07:14:08.668Z,-0.41
2023-01-20T07:16:36.205Z,-0.42
2023-01-20T07:19:03.775Z,-0.49
2023-01-20T07:21:30.796Z,-0.36
2023-01-20T07:24:01.683Z,-0.31
2023-01-20T07:26:29.011Z,-0.35
2023-01-20T07:28:58.081Z,-0.25
2023-01-20T07:31:28.216Z,-0.33
2023-01-20T07:33:56.657Z,-0.34
2023-01-20T07:36:24.454Z,-0.35
2023-01-20T07:38:53.000Z,-0.38
2023-01-20T07:41:21.559Z,-0.38
2023-01-20T07:43:51.452Z,-0.41
2023-01-20T07:46:19.723Z,-0.36
2023-01-20T07:48:46.930Z,-0.24
2023-01-20T07:51:16.133Z,-0.06
2023-01-20T07:53:49.062Z,-0.10
2023-01-20T07:56:22.097Z,-0.07
2023-01-20T07:58:50.657Z,-0.07
2023-01-20T08:01:29.948Z,-0.06
2023-01-20T08:04:00.438Z,0.07
2023-01-20T08:06:28.333Z,0.05
2023-01-20T08:08:58.454Z,0.11
2023-01-20T08:11:25.774Z,0.12
2023-01-20T08:13:53.158Z,0.09
2023-01-20T08:16:20.286Z,0.10
2023-01-20T08:18:47.862Z,0.12
2023-01-20T08:21:31.073Z,0.08
2023-01-20T08:24:00.819Z,0.11
2023-01-20T08:26:29.768Z,-0.01
2023-01-20T08:29:06.430Z,-0.08
2023-01-20T08:31:33.691Z,-0.01
2023-01-20T08:34:01.446Z,0.14
2023-01-20T08:36:32.776Z,0.21
2023-01-20T08:39:03.173Z,0.34
2023-01-20T08:41:35.559Z,0.01
2023-01-20T08:44:06.040Z,0.13
2023-01-20T08:46:34.406Z,0.13
2023-01-20T08:49:01.546Z,0.25
2023-01-20T08:51:31.588Z,0.31
2023-01-20T08:53:59.255Z,0.30
2023-01-20T08:56:26.969Z,0.43
2023-01-20T08:58:56.287Z,0.46
2023-01-20T09:01:26.501Z,0.41
2023-01-20T09:04:05.349Z,0.49
2023-01-20T09:06:53.929Z,0.87
2023-01-20T09:09:22.638Z,1.58
2023-01-20T09:11:52.894Z,2.01
2023-01-20T09:14:25.086Z,2.22
2023-01-20T09:16:52.567Z,2.54
2023-01-20T09:19:19.968Z,2.64
2023-01-20T09:21:47.330Z,2.54
2023-01-20T09:24:15.123Z,2.04
2023-01-20T09:26:42.172Z,2.19
2023-01-20T09:29:15.401Z,2.22
2023-01-20T09:31:58.354Z,1.98
2023-01-20T09:34:29.356Z,1.71
2023-01-20T09:37:19.867Z,1.76
2023-01-20T09:40:06.169Z,2.10
2023-01-20T09:43:34.824Z,2.02
2023-01-20T09:46:14.093Z,2.19
2023-01-20T09:49:08.638Z,1.92
2023-01-20T09:52:42.708Z,2.39
2023-01-20T09:55:23.227Z,2.34
2023-01-20T09:58:08.087Z,2.31
2023-01-20T10:00:36.930Z,2.49
2023-01-20T10:03:36.945Z,2.98
2023-01-20T10:06:34.209Z,3.11
2023-01-20T10:09:17.280Z,3.42
2023-01-20T10:11:47.258Z,3.29
2023-01-20T10:14:38.742Z,3.69
2023-01-20T10:17:23.275Z,3.99
2023-01-20T10:20:01.685Z,4.08
2023-01-20T10:22:28.584Z,4.15
2023-01-20T10:25:09.044Z,4.16
2023-01-20T10:27:44.929Z,3.12
2023-01-20T10:30:15.308Z,3.27
2023-01-20T10:33:08.615Z,3.55
2023-01-20T10:35:57.413Z,2.89
2023-01-20T10:38:34.748Z,2.79
2023-01-20T10:41:36.675Z,3.40
2023-01-20T10:44:12.170Z,4.72
2023-01-20T10:46:49.140Z,4.63
2023-01-20T10:49:52.368Z,5.94
2023-01-20T10:52:43.605Z,5.73
2023-01-20T10:55:35.496Z,6.85
2023-01-20T10:58:22.937Z,7.23
2023-01-20T11:00:50.360Z,7.80
2023-01-20T11:03:21.043Z,8.01
2023-01-20T11:05:49.927Z,7.54
2023-01-20T11:08:21.901Z,7.76
2023-01-20T11:10:54.161Z,7.01
2023-01-20T11:13:21.283Z,6.26
2023-01-20T11:15:56.340Z,5.99
2023-01-20T11:18:29.779Z,6.37
2023-01-20T11:21:12.579Z,7.45
2023-01-20T11:23:55.838Z,7.34
2023-01-20T11:26:36.128Z,7.42
2023-01-20T11:29:29.020Z,7.87
2023-01-20T11:31:56.999Z,8.15
2023-01-20T11:34:34.803Z,9.36
2023-01-20T11:37:37.344Z,9.61
2023-01-20T11:40:25.202Z,9.41
2023-01-20T11:42:54.711Z,9.06
2023-01-20T11:45:31.094Z,8.69
2023-01-20T11:48:19.241Z,8.16
2023-01-20T11:51:01.427Z,7.60
2023-01-20T11:53:33.807Z,7.18
2023-01-20T11:56:06.078Z,7.40
2023-01-20T11:58:54.619Z,5.17
2023-01-20T12:01:31.235Z,5.97
2023-01-20T12:04:04.374Z,5.64
2023-01-20T12:07:01.691Z,5.62
2023-01-20T12:09:35.462Z,5.62
2023-01-20T12:12:07.374Z,5.85
2023-01-20T12:14:57.528Z,5.82
2023-01-20T12:17:32.448Z,5.51
2023-01-20T12:20:08.562Z,5.43
2023-01-20T12:22:41.980Z,5.50
2023-01-20T12:25:32.199Z,5.45
2023-01-20T12:28:16.007Z,5.40
2023-01-20T12:30:49.009Z,4.83
2023-01-20T12:33:34.383Z,4.95
2023-01-20T12:36:44.926Z,4.97
2023-01-20T12:39:28.199Z,4.90
2023-01-20T12:42:12.342Z,5.03
2023-01-20T12:44:52.016Z,5.10
2023-01-20T12:47:49.354Z,5.26
2023-01-20T12:50:58.257Z,5.13
2023-01-20T12:53:48.453Z,5.09
2023-01-20T12:56:28.160Z,5.04
2023-01-20T12:59:17.370Z,5.04
2023-01-20T13:02:41.536Z,5.07
2023-01-20T13:05:35.203Z,4.99
2023-01-20T13:08:17.450Z,4.99
2023-01-20T13:11:07.427Z,5.10
2023-01-20T13:14:06.819Z,5.00
2023-01-20T13:16:58.809Z,4.63
2023-01-20T13:19:41.425Z,4.54
2023-01-20T13:22:15.378Z,3.99
2023-01-20T13:24:46.570Z,4.13
2023-01-20T13:27:23.610Z,4.30
2023-01-20T13:29:50.479Z,4.43
2023-01-20T13:32:30.954Z,4.48
2023-01-20T13:34:58.833Z,4.32
2023-01-20T13:37:32.396Z,4.28
2023-01-20T13:40:00.455Z,4.22
2023-01-20T13:42:37.576Z,4.11
2023-01-20T13:45:14.049Z,4.46
2023-01-20T13:48:06.991Z,4.54
2023-01-20T13:50:39.803Z,4.32
2023-01-20T13:53:21.647Z,4.21
2023-01-20T13:55:48.554Z,3.95
2023-01-20T13:58:26.240Z,3.90
2023-01-20T14:00:57.421Z,3.72
2023-01-20T14:03:35.064Z,3.70
2023-01-20T14:06:07.579Z,3.71
2023-01-20T14:08:49.940Z,3.77
2023-01-20T14:11:21.814Z,3.78
2023-01-20T14:13:55.033Z,4.16
2023-01-20T14:16:27.374Z,5.12
2023-01-20T14:18:58.298Z,5.55
2023-01-20T14:21:28.885Z,5.54
2023-01-20T14:23:57.261Z,5.56
2023-01-20T14:26:30.748Z,5.43
2023-01-20T14:29:01.539Z,5.15
2023-01-20T14:31:40.443Z,4.68
2023-01-20T14:34:25.360Z,4.43
2023-01-20T14:36:52.996Z,3.99
2023-01-20T14:39:27.254Z,3.91
2023-01-20T14:41:57.945Z,3.83
2023-01-20T14:44:30.857Z,3.70
2023-01-20T14:47:01.014Z,3.03
2023-01-20T14:49:41.848Z,2.56
2023-01-20T14:52:13.703Z,2.86
2023-01-20T14:54:46.116Z,2.32
2023-01-20T14:57:18.155Z,2.24
2023-01-20T14:59:45.491Z,2.44
2023-01-20T15:02:30.099Z,2.54
2023-01-20T15:04:57.283Z,2.02
2023-01-20T15:07:25.228Z,2.04
2023-01-20T15:10:10.037Z,1.89
2023-01-20T15:12:40.572Z,1.94
2023-01-20T15:15:25.149Z,1.95
2023-01-20T15:18:17.070Z,2.02
2023-01-20T15:21:15.694Z,1.84
2023-01-20T15:23:45.779Z,1.93
2023-01-20T15:26:30.109Z,2.02
2023-01-20T15:28:58.381Z,1.93
2023-01-20T15:31:26.383Z,1.85
2023-01-20T15:33:53.542Z,1.76
2023-01-20T15:36:21.853Z,1.59
2023-01-20T15:38:49.630Z,1.54
2023-01-20T15:41:17.092Z,1.43
2023-01-20T15:43:45.500Z,1.38
2023-01-20T15:46:14.299Z,1.27
2023-01-20T15:48:41.926Z,1.11
2023-01-20T15:51:18.926Z,0.94
2023-01-20T15:53:46.995Z,0.89
2023-01-20T15:56:25.874Z,0.80
2023-01-20T15:58:53.728Z,0.71
2023-01-20T16:01:25.001Z,0.66
2023-01-20T16:03:57.154Z,0.59
2023-01-20T16:06:31.553Z,0.52
2023-01-20T16:09:15.209Z,0.39
2023-01-20T16:11:42.330Z,0.32
2023-01-20T16:14:09.293Z,0.19
2023-01-20T16:16:36.390Z,0.09
2023-01-20T16:19:04.755Z,0.06
2023-01-20T16:21:31.709Z,0.02
2023-01-20T16:23:58.959Z,-0.05
2023-01-20T16:26:28.844Z,-0.13
2023-01-20T16:28:57.901Z,-0.30
2023-01-20T16:31:26.961Z,-0.46
2023-01-20T16:33:54.886Z,-0.52
2023-01-20T16:36:24.253Z,-0.53
2023-01-20T16:38:52.216Z,-0.60
2023-01-20T16:41:33.089Z,-0.67
2023-01-20T16:44:00.114Z,-0.78
2023-01-20T16:46:32.720Z,-0.81
2023-01-20T16:49:01.819Z,-0.71
2023-01-20T16:51:30.547Z,-0.80
2023-01-20T16:53:59.070Z,-0.96
2023-01-20T16:56:29.660Z,-1.08
2023-01-20T16:59:01.417Z,-0.88
2023-01-20T17:01:30.072Z,-1.20
2023-01-20T17:04:02.427Z,-1.34
2023-01-20T17:06:33.870Z,-1.22
2023-01-20T17:09:04.076Z,-1.06
2023-01-20T17:11:37.203Z,-1.07
2023-01-20T17:14:07.580Z,-1.35
2023-01-20T17:16:36.061Z,-1.20
2023-01-20T17:19:04.096Z,-1.21
2023-01-20T17:21:33.341Z,-1.16
2023-01-20T17:24:04.344Z,-1.21
2023-01-20T17:26:31.609Z,-1.31
2023-01-20T17:29:04.689Z,-1.51
2023-01-20T17:31:35.471Z,-1.48
2023-01-20T17:34:04.661Z,-1.55
2023-01-20T17:36:34.545Z,-1.59
2023-01-20T17:39:03.807Z,-1.90
2023-01-20T17:41:30.895Z,-2.05
2023-01-20T17:43:57.850Z,-2.21
2023-01-20T17:46:28.438Z,-2.29
2023-01-20T17:49:04.746Z,-2.28
2023-01-20T17:51:31.844Z,-2.23
2023-01-20T17:54:02.547Z,-2.22
2023-01-20T17:56:30.902Z,-2.25
2023-01-20T17:58:57.897Z,-2.33
2023-01-20T18:01:28.739Z,-2.35
2023-01-20T18:03:58.929Z,-2.20
2023-01-20T18:06:27.866Z,-2.18
2023-01-20T18:08:58.828Z,-2.03
2023-01-20T18:11:29.160Z,-2.11
2023-01-20T18:13:58.279Z,-2.30
2023-01-20T18:16:30.466Z,-2.32
2023-01-20T18:19:00.821Z,-2.46
2023-01-20T18:21:36.684Z,-2.57
2023-01-20T18:24:08.404Z,-2.50
2023-01-20T18:26:38.305Z,-2.22
2023-01-20T18:29:13.201Z,-2.23
2023-01-20T18:31:40.393Z,-2.58
2023-01-20T18:34:11.558Z,-2.41
2023-01-20T18:36:41.819Z,-2.37
2023-01-20T18:39:18.636Z,-2.10
2023-01-20T18:41:47.885Z,-2.16
2023-01-20T18:44:15.593Z,-2.54
2023-01-20T18:46:42.675Z,-2.60
2023-01-20T18:49:13.732Z,-2.71
2023-01-20T18:51:42.329Z,-2.89
2023-01-20T18:54:21.186Z,-3.02
2023-01-20T18:56:48.567Z,-2.90
2023-01-20T18:59:15.607Z,-3.04
2023-01-20T19:01:43.015Z,-3.05
2023-01-20T19:04:12.453Z,-3.08
2023-01-20T19:06:45.294Z,-3.17
2023-01-20T19:09:12.926Z,-3.19
2023-01-20T19:11:41.970Z,-3.09
2023-01-20T19:14:13.352Z,-2.92
2023-01-20T19:16:48.936Z,-2.74
2023-01-20T19:19:17.768Z,-2.90
2023-01-20T19:21:45.185Z,-3.09
2023-01-20T19:24:19.715Z,-3.10
2023-01-20T19:26:46.761Z,-3.19
2023-01-20T19:29:17.046Z,-3.20
2023-01-20T19:31:44.178Z,-3.15
2023-01-20T19:34:11.463Z,-3.24
2023-01-20T19:36:38.752Z,-3.33
2023-01-20T19:39:05.981Z,-3.01
2023-01-20T19:41:34.387Z,-2.94
2023-01-20T19:44:03.635Z,-2.66
2023-01-20T19:46:34.940Z,-2.67
2023-01-20T19:49:02.576Z,-2.56
2023-01-20T19:51:31.427Z,-2.56
2023-01-20T19:54:01.005Z,-2.64
2023-01-20T19:56:31.156Z,-2.80
2023-01-20T19:59:00.756Z,-2.87
2023-01-20T20:01:34.138Z,-3.02
2023-01-20T20:04:07.530Z,-2.88
2023-01-20T20:06:44.995Z,-2.98
2023-01-20T20:09:17.668Z,-3.26
2023-01-20T20:11:45.230Z,-3.40
2023-01-20T20:14:15.007Z,-3.50
2023-01-20T20:16:42.547Z,-3.62
2023-01-20T20:19:14.656Z,-3.44
2023-01-20T20:21:42.389Z,-3.17
2023-01-20T20:24:12.964Z,-3.09
2023-01-20T20:26:40.394Z,-3.41
2023-01-20T20:29:08.811Z,-3.18
2023-01-20T20:31:37.623Z,-3.35
2023-01-20T20:34:08.443Z,-3.26
2023-01-20T20:36:36.034Z,-3.24
2023-01-20T20:39:04.999Z,-3.53
2023-01-20T20:41:35.244Z,-3.73
2023-01-20T20:44:03.455Z,-3.71
2023-01-20T20:46:30.770Z,-3.38
2023-01-20T20:48:59.789Z,-3.53
2023-01-20T20:51:28.724Z,-3.64
2023-01-20T20:53:57.888Z,-3.72
2023-01-20T20:56:27.956Z,-3.66
2023-01-20T20:59:01.922Z,-3.69
2023-01-20T21:01:34.592Z,-3.61
2023-01-20T21:04:03.345Z,-3.69
2023-01-20T21:06:30.824Z,-3.55
2023-01-20T21:08:58.781Z,-3.17
2023-01-20T21:11:26.154Z,-3.19
2023-01-20T21:13:53.750Z,-3.37
2023-01-20T21:16:23.360Z,-3.26
2023-01-20T21:18:52.699Z,-3.23
2023-01-20T21:21:20.579Z,-3.42
2023-01-20T21:23:55.450Z,-3.52
2023-01-20T21:26:24.376Z,-3.50
2023-01-20T21:28:51.587Z,-3.17
2023-01-20T21:31:22.121Z,-3.31
2023-01-20T21:33:54.079Z,-3.32
2023-01-20T21:36:22.422Z,-3.40
2023-01-20T21:38:50.567Z,-3.21
2023-01-20T21:41:18.683Z,-3.11
2023-01-20T21:44:06.064Z,-3.13
2023-01-20T21:46:40.114Z,-3.11
2023-01-20T21:49:27.163Z,-3.10
2023-01-20T21:52:14.092Z,-3.10
2023-01-20T21:54:41.716Z,-3.06
2023-01-20T21:57:09.223Z,-3.11
2023-01-20T21:59:36.936Z,-2.92
2023-01-20T22:02:04.182Z,-2.91
2023-01-20T22:04:32.107Z,-2.94
2023-01-20T22:06:59.197Z,-3.07
2023-01-20T22:09:26.178Z,-2.98
2023-01-20T22:11:53.195Z,-3.02
2023-01-20T22:14:20.196Z,-2.81
2023-01-20T22:16:47.158Z,-2.85
2023-01-20T22:19:14.797Z,-2.92
2023-01-20T22:21:42.391Z,-2.83
2023-01-20T22:24:10.555Z,-3.15
2023-01-20T22:26:37.654Z,-3.03
2023-01-20T22:29:04.651Z,-3.08
2023-01-20T22:31:33.966Z,-2.97
2023-01-20T22:34:04.451Z,-3.00
2023-01-20T22:36:32.094Z,-2.86
2023-01-20T22:38:59.711Z,-2.81
2023-01-20T22:41:27.170Z,-2.82
2023-01-20T22:43:55.321Z,-2.89
2023-01-20T22:46:24.825Z,-2.80
2023-01-20T22:48:51.968Z,-2.94
2023-01-20T22:51:22.531Z,-2.99
2023-01-20T22:53:50.342Z,-3.07
2023-01-20T22:56:20.853Z,-3.11
2023-01-20T22:58:48.082Z,-3.16
2023-01-20T23:01:18.423Z,-3.16
2023-01-20T23:03:46.091Z,-3.20
2023-01-20T23:06:14.501Z,-3.23
2023-01-20T23:08:41.966Z,-3.19
2023-01-20T23:11:15.718Z,-3.05
2023-01-20T23:13:43.152Z,-2.80
2023-01-20T23:16:22.593Z,-3.09
2023-01-20T23:18:51.602Z,-3.23
2023-01-20T23:21:20.104Z,-3.28
2023-01-20T23:23:54.063Z,-3.24
2023-01-20T23:26:27.626Z,-3.28
2023-01-20T23:28:56.130Z,-3.36
2023-01-20T23:31:25.177Z,-3.40
2023-01-20T23:33:54.173Z,-3.43
2023-01-20T23:36:24.187Z,-3.45
2023-01-20T23:38:54.447Z,-3.48
2023-01-20T23:41:21.783Z,-3.46
2023-01-20T23:43:48.921Z,-3.48
2023-01-20T23:46:15.892Z,-3.53
2023-01-20T23:48:46.654Z,-3.29
2023-01-20T23:51:14.176Z,-3.15
2023-01-20T23:53:41.446Z,-3.35
2023-01-20T23:56:14.191Z,-3.45
2023-01-20T23:58:41.785Z,-3.47
